Time,TemperatureF,DewpointF,PressureIn,WindDirection,WindDirectionDegrees,WindSpeedMPH,WindSpeedGustMPH,Humidity,HourlyPrecipIn,Conditions,Clouds,dailyrainin,SoftwareType,DateUTC
2013-10-14 00:23:00,48.0,42.0,-100.00,NE,40,0.0,0.0,78,-99.99,,,-99.99,,2013-10-14 05:23:00,
2013-10-14 00:52:00,47.0,40.0,-100.00,ESE,120,0.0,0.0,78,-99.99,,,-99.99,,2013-10-14 05:52:00,
2013-10-14 01:22:00,44.0,39.0,-100.00,SE,130,0.0,0.0,82,-99.99,,,-99.99,,2013-10-14 06:22:00,
2013-10-14 01:52:00,43.0,38.0,-100.00,ESE,115,0.0,0.0,84,-99.99,,,-99.99,,2013-10-14 06:52:00,
2013-10-14 02:22:00,42.0,38.0,-100.00,SE,125,0.0,0.0,87,-99.99,,,-99.99,,2013-10-14 07:22:00,
2013-10-14 02:52:00,43.0,39.0,-100.00,ESE,115,0.0,0.0,86,-99.99,,,-99.99,,2013-10-14 07:52:00,
2013-10-14 03:22:00,43.0,38.0,-100.00,ESE,120,0.0,0.0,84,-99.99,,,-99.99,,2013-10-14 08:22:00,
2013-10-14 03:52:00,42.0,37.0,-100.00,East,80,0.0,0.0,80,-99.99,,,-99.99,,2013-10-14 08:52:00,
2013-10-14 04:22:00,43.0,35.0,-100.00,NNE,25,0.0,0.0,74,-99.99,,,-99.99,,2013-10-14 09:22:00,
2013-10-14 04:53:00,43.0,35.0,-100.00,NNE,20,0.0,0.0,75,-99.99,,,-99.99,,2013-10-14 09:53:00,
2013-10-14 05:23:00,41.0,35.0,-100.00,ENE,75,0.0,0.0,79,-99.99,,,-99.99,,2013-10-14 10:23:00,
2013-10-14 05:53:00,40.0,35.0,-100.00,East,100,0.0,0.0,84,-99.99,,,-99.99,,2013-10-14 10:53:00,
2013-10-14 06:22:00,40.0,35.0,-100.00,East,80,0.0,0.0,84,-99.99,,,-99.99,,2013-10-14 11:22:00,
2013-10-14 06:52:00,39.0,36.0,-100.00,ENE,75,0.0,0.0,88,-99.99,,,-99.99,,2013-10-14 11:52:00,
2013-10-14 07:22:00,38.0,36.0,-100.00,ESE,120,0.0,0.0,91,-99.99,,,-99.99,,2013-10-14 12:22:00,
2013-10-14 07:52:00,39.0,36.0,-100.00,ESE,105,0.0,0.0,89,-99.99,,,-99.99,,2013-10-14 12:52:00,
2013-10-14 08:22:00,39.0,36.0,-100.00,NNE,30,0.0,0.0,90,-99.99,,,-99.99,,2013-10-14 13:22:00,
2013-10-14 08:52:00,43.0,38.0,-100.00,East,90,0.0,0.0,80,-99.99,,,-99.99,,2013-10-14 13:52:00,
2013-10-14 09:22:00,46.0,39.0,-100.00,SE,125,0.0,0.0,77,-99.99,,,-99.99,,2013-10-14 14:22:00,
2013-10-14 09:52:00,50.0,41.0,-100.00,ESE,105,0.0,0.0,71,-99.99,,,-99.99,,2013-10-14 14:52:00,
2013-10-14 10:22:00,53.0,42.0,-100.00,East,100,0.0,0.0,67,-99.99,,,-99.99,,2013-10-14 15:22:00,
2013-10-14 10:54:00,54.0,42.0,-100.00,ENE,60,0.0,5.0,64,-99.99,,,-99.99,,2013-10-14 15:54:00,
2013-10-14 11:23:00,58.0,42.0,-100.00,ESE,115,0.0,7.0,56,-99.99,,,-99.99,,2013-10-14 16:23:00,
2013-10-14 11:53:00,59.0,42.0,-100.00,NE,55,8.0,16.0,53,-99.99,,,-99.99,,2013-10-14 16:53:00,
2013-10-14 12:22:00,61.0,42.0,-100.00,ESE,105,10.0,16.0,50,-99.99,,,-99.99,,2013-10-14 17:22:00,
2013-10-14 12:52:00,62.0,42.0,-100.00,ENE,70,0.0,18.0,48,-99.99,,,-99.99,,2013-10-14 17:52:00,
2013-10-14 13:22:00,63.0,42.0,-100.00,ESE,120,4.0,14.0,47,-99.99,,,-99.99,,2013-10-14 18:22:00,
2013-10-14 13:52:00,63.0,42.0,-100.00,ESE,110,1.0,14.0,45,-99.99,,,-99.99,,2013-10-14 18:52:00,
2013-10-14 14:22:00,63.0,41.0,-100.00,SE,125,4.0,16.0,43,-99.99,,,-99.99,,2013-10-14 19:22:00,
2013-10-14 14:52:00,64.0,41.0,-100.00,ESE,115,4.0,11.0,42,-99.99,,,-99.99,,2013-10-14 19:52:00,
2013-10-14 15:22:00,64.0,41.0,-100.00,SE,125,5.0,21.0,42,-99.99,,,-99.99,,2013-10-14 20:22:00,
2013-10-14 15:52:00,64.0,40.0,-100.00,SE,125,6.0,16.0,42,-99.99,,,-99.99,,2013-10-14 20:52:00,
2013-10-14 16:22:00,65.0,39.0,-100.00,SE,130,6.0,16.0,39,-99.99,,,-99.99,,2013-10-14 21:22:00,
2013-10-14 16:55:00,65.0,40.0,-100.00,ESE,105,1.0,18.0,39,-99.99,,,-99.99,,2013-10-14 21:55:00,
2013-10-14 17:24:00,65.0,38.0,-100.00,ESE,110,1.0,14.0,37,-99.99,,,-99.99,,2013-10-14 22:24:00,
2013-10-14 17:54:00,65.0,39.0,-100.00,East,95,4.0,11.0,38,-99.99,,,-99.99,,2013-10-14 22:54:00,
2013-10-14 18:22:00,64.0,38.0,-100.00,ESE,120,0.0,0.0,39,-99.99,,,-99.99,,2013-10-14 23:22:00,
2013-10-14 18:53:00,62.0,37.0,-100.00,East,90,0.0,0.0,40,-99.99,,,-99.99,,2013-10-14 23:53:00,
2013-10-14 19:22:00,60.0,38.0,-100.00,East,85,0.0,0.0,44,-99.99,,,-99.99,,2013-10-15 00:22:00,
2013-10-14 19:52:00,58.0,38.0,-100.00,ESE,120,0.0,0.0,48,-99.99,,,-99.99,,2013-10-15 00:52:00,
2013-10-14 20:22:00,58.0,37.0,-100.00,ENE,75,0.0,0.0,47,-99.99,,,-99.99,,2013-10-15 01:22:00,
2013-10-14 20:52:00,56.0,38.0,-100.00,East,80,0.0,0.0,50,-99.99,,,-99.99,,2013-10-15 01:52:00,
2013-10-14 21:22:00,56.0,39.0,-100.00,ESE,115,0.0,0.0,53,-99.99,,,-99.99,,2013-10-15 02:22:00,
2013-10-14 21:52:00,55.0,40.0,-100.00,East,95,0.0,0.0,55,-99.99,,,-99.99,,2013-10-15 02:52:00,
2013-10-14 22:23:00,54.0,40.0,-100.00,East,90,0.0,3.0,58,-99.99,,,-99.99,,2013-10-15 03:23:00,
2013-10-14 22:55:00,54.0,40.0,-100.00,NE,45,0.0,0.0,59,-99.99,,,-99.99,,2013-10-15 03:55:00,
2013-10-14 23:24:00,53.0,41.0,-100.00,East,90,2.0,9.0,62,-99.99,,,-99.99,,2013-10-15 04:24:00,
2013-10-14 23:54:00,53.0,41.0,-100.00,East,90,0.0,6.0,63,-99.99,,,-99.99,,2013-10-15 04:54:00,